createdAt,value
2023-04-06T00:01:05.229Z,57.12
2023-04-06T00:03:32.267Z,56.85
2023-04-06T00:05:59.183Z,56.78
2023-04-06T00:08:27.542Z,56.90
2023-04-06T00:10:54.412Z,57.33
2023-04-06T00:13:21.638Z,57.35
2023-04-06T00:15:48.547Z,57.34
2023-04-06T00:18:15.604Z,57.42
2023-04-06T00:20:42.594Z,57.38
2023-04-06T00:23:09.487Z,57.34
2023-04-06T00:25:36.500Z,57.42
2023-04-06T00:28:04.677Z,57.04
2023-04-06T00:30:31.611Z,57.30
2023-04-06T00:32:58.539Z,57.77
2023-04-06T00:35:25.510Z,57.27
2023-04-06T00:37:52.442Z,57.37
2023-04-06T00:40:19.755Z,57.57
2023-04-06T00:42:46.804Z,57.68
2023-04-06T00:45:13.728Z,57.70
2023-04-06T00:47:41.227Z,57.89
2023-04-06T00:50:08.900Z,57.83
2023-04-06T00:52:36.762Z,57.86
2023-04-06T00:55:05.792Z,57.74
2023-04-06T00:57:34.855Z,57.98
2023-04-06T01:00:01.896Z,58.05
2023-04-06T01:02:29.035Z,57.67
2023-04-06T01:04:56.385Z,57.65
2023-04-06T01:07:28.630Z,57.67
2023-04-06T01:10:10.709Z,57.21
2023-04-06T01:12:43.395Z,57.22
2023-04-06T01:15:20.895Z,57.38
2023-04-06T01:17:51.384Z,57.36
2023-04-06T01:20:18.844Z,57.80
2023-04-06T01:22:45.991Z,57.69
2023-04-06T01:25:13.684Z,58.07
2023-04-06T01:28:03.059Z,58.04
2023-04-06T01:30:48.799Z,58.32
2023-04-06T01:33:29.568Z,58.36
2023-04-06T01:36:04.772Z,58.23
2023-04-06T01:38:32.070Z,58.54
2023-04-06T01:40:59.000Z,58.40
2023-04-06T01:43:30.286Z,58.26
2023-04-06T01:46:06.769Z,58.36
2023-04-06T01:48:40.183Z,58.41
2023-04-06T01:51:17.781Z,57.88
2023-04-06T01:53:53.030Z,58.21
2023-04-06T01:56:23.581Z,58.17
2023-04-06T01:59:00.437Z,58.46
2023-04-06T02:01:32.545Z,58.38
2023-04-06T02:03:59.567Z,58.63
2023-04-06T02:06:26.474Z,58.26
2023-04-06T02:08:53.517Z,58.27
2023-04-06T02:11:20.862Z,58.22
2023-04-06T02:13:51.238Z,58.49
2023-04-06T02:16:18.898Z,57.96
2023-04-06T02:18:47.064Z,57.94
2023-04-06T02:21:14.090Z,58.22
2023-04-06T02:23:41.014Z,58.33
2023-04-06T02:26:08.166Z,57.67
2023-04-06T02:28:35.126Z,57.68
2023-04-06T02:31:02.276Z,57.80
2023-04-06T02:33:30.074Z,57.61
2023-04-06T02:35:57.502Z,57.61
2023-04-06T02:38:24.529Z,57.29
2023-04-06T02:40:52.846Z,57.64
2023-04-06T02:43:23.032Z,57.65
2023-04-06T02:45:54.391Z,57.60
2023-04-06T02:48:23.935Z,57.67
2023-04-06T02:50:50.976Z,57.73
2023-04-06T02:53:17.991Z,57.74
2023-04-06T02:55:45.131Z,57.62
2023-04-06T02:58:12.156Z,58.08
2023-04-06T03:00:45.712Z,57.89
2023-04-06T03:03:12.854Z,58.37
2023-04-06T03:05:40.924Z,58.42
2023-04-06T03:08:08.479Z,58.32
2023-04-06T03:10:41.571Z,58.72
2023-04-06T03:13:08.775Z,58.66
2023-04-06T03:15:56.847Z,58.93
2023-04-06T03:18:25.662Z,58.41
2023-04-06T03:20:56.794Z,58.35
2023-04-06T03:23:30.071Z,58.15
2023-04-06T03:26:00.402Z,58.42
2023-04-06T03:28:27.533Z,57.97
2023-04-06T03:30:58.105Z,58.28
2023-04-06T03:33:57.223Z,58.20
2023-04-06T03:36:28.869Z,58.11
2023-04-06T03:41:59.977Z,58.23
2023-04-06T03:44:38.839Z,58.15
2023-04-06T03:47:07.025Z,58.37
2023-04-06T03:49:34.021Z,58.46
2023-04-06T03:52:02.211Z,58.57
2023-04-06T03:54:29.874Z,58.53
2023-04-06T03:56:57.458Z,58.64
2023-04-06T03:59:27.433Z,58.49
2023-04-06T04:01:54.593Z,58.97
2023-04-06T04:04:21.551Z,59.14
2023-04-06T04:06:48.822Z,59.10
2023-04-06T04:09:15.961Z,59.22
2023-04-06T04:11:43.091Z,58.97
2023-04-06T04:14:10.063Z,58.89
2023-04-06T04:16:37.180Z,59.06
2023-04-06T04:19:04.121Z,59.23
2023-04-06T04:21:32.568Z,59.64
2023-04-06T04:24:03.984Z,59.35
2023-04-06T04:26:34.173Z,59.25
2023-04-06T04:29:01.212Z,59.43
2023-04-06T04:31:28.249Z,59.27
2023-04-06T04:34:01.358Z,59.37
2023-04-06T04:36:31.419Z,59.40
2023-04-06T04:39:02.610Z,59.49
2023-04-06T04:41:33.087Z,59.38
2023-04-06T04:44:01.070Z,59.28
2023-04-06T04:46:28.403Z,58.92
2023-04-06T04:48:55.623Z,59.00
2023-04-06T04:51:22.860Z,59.02
2023-04-06T04:54:06.785Z,58.67
2023-04-06T04:56:34.587Z,58.70
2023-04-06T04:59:22.773Z,58.29
2023-04-06T05:01:57.302Z,58.15
2023-04-06T05:04:33.853Z,58.28
2023-04-06T05:07:07.507Z,58.26
2023-04-06T05:09:36.583Z,58.16
2023-04-06T05:12:04.118Z,57.76
2023-04-06T05:14:36.298Z,58.40
2023-04-06T05:17:06.788Z,58.41
2023-04-06T05:19:33.778Z,58.51
2023-04-06T05:22:01.705Z,58.38
2023-04-06T05:24:29.769Z,58.51
2023-04-06T05:26:57.162Z,58.29
2023-04-06T05:29:24.932Z,58.44
2023-04-06T05:31:52.475Z,58.68
2023-04-06T05:34:19.995Z,58.13
2023-04-06T05:36:48.816Z,57.74
2023-04-06T05:39:21.985Z,57.82
2023-04-06T05:41:51.705Z,57.71
2023-04-06T05:44:29.244Z,57.29
2023-04-06T05:47:04.596Z,57.39
2023-04-06T05:49:31.901Z,57.47
2023-04-06T05:51:59.304Z,57.31
2023-04-06T05:54:26.421Z,57.68
2023-04-06T05:56:59.588Z,57.40
2023-04-06T05:59:26.670Z,57.30
2023-04-06T06:01:54.886Z,57.18
2023-04-06T06:04:23.166Z,57.27
2023-04-06T06:06:53.619Z,57.01
2023-04-06T06:09:27.272Z,57.39
2023-04-06T06:12:06.337Z,57.07
2023-04-06T06:14:33.587Z,57.16
2023-04-06T06:17:00.842Z,57.07
2023-04-06T06:19:28.964Z,56.91
2023-04-06T06:22:02.719Z,56.93
2023-04-06T06:24:31.627Z,56.79
2023-04-06T06:27:00.300Z,56.46
2023-04-06T06:29:29.986Z,55.76
2023-04-06T06:31:57.024Z,53.93
2023-04-06T06:34:24.928Z,52.33
2023-04-06T06:36:52.930Z,50.25
2023-04-06T06:39:20.725Z,48.03
2023-04-06T06:41:48.859Z,46.27
2023-04-06T06:44:17.830Z,45.25
2023-04-06T06:46:44.739Z,43.55
2023-04-06T06:49:13.458Z,42.56
2023-04-06T06:51:40.520Z,41.02
2023-04-06T06:54:08.522Z,40.22
2023-04-06T06:56:38.066Z,40.34
2023-04-06T06:59:07.051Z,40.09
2023-04-06T07:01:36.192Z,40.36
2023-04-06T07:04:03.287Z,39.29
2023-04-06T07:06:30.540Z,38.65
2023-04-06T07:08:57.571Z,38.56
2023-04-06T07:11:24.507Z,35.92
2023-04-06T07:13:51.476Z,35.57
2023-04-06T07:16:18.377Z,34.96
2023-04-06T07:18:45.298Z,33.84
2023-04-06T07:21:12.308Z,32.73
2023-04-06T07:23:39.287Z,31.25
2023-04-06T07:26:07.766Z,32.09
2023-04-06T07:28:34.972Z,31.39
2023-04-06T07:31:02.790Z,30.63
2023-04-06T07:33:31.072Z,31.10
2023-04-06T07:36:00.016Z,32.00
2023-04-06T07:38:27.077Z,32.22
2023-04-06T07:40:54.276Z,32.97
2023-04-06T07:43:21.356Z,33.63
2023-04-06T07:45:48.949Z,34.43
2023-04-06T07:48:17.444Z,35.02
2023-04-06T07:50:45.087Z,35.25
2023-04-06T07:53:12.115Z,36.05
2023-04-06T07:55:39.862Z,36.20
2023-04-06T07:58:06.846Z,36.36
2023-04-06T08:00:34.105Z,36.58
2023-04-06T08:03:01.170Z,36.86
2023-04-06T08:05:28.717Z,36.79
2023-04-06T08:07:55.815Z,36.80
2023-04-06T08:10:22.754Z,36.67
2023-04-06T08:12:49.708Z,36.32
2023-04-06T08:15:19.154Z,34.90
2023-04-06T08:17:46.224Z,33.61
2023-04-06T08:20:13.189Z,32.19
2023-04-06T08:22:40.084Z,30.66
2023-04-06T08:25:07.363Z,29.50
2023-04-06T08:27:34.348Z,29.59
2023-04-06T08:30:01.310Z,29.35
2023-04-06T08:32:28.312Z,29.20
2023-04-06T08:34:56.511Z,29.10
2023-04-06T08:37:23.841Z,29.20
2023-04-06T08:39:51.418Z,29.34
2023-04-06T08:42:21.727Z,29.67
2023-04-06T08:44:52.500Z,30.12
2023-04-06T08:47:21.689Z,29.64
2023-04-06T08:49:51.915Z,30.19
2023-04-06T08:52:20.092Z,30.67
2023-04-06T08:54:47.198Z,31.00
2023-04-06T08:57:14.683Z,31.28
2023-04-06T08:59:42.268Z,31.27
2023-04-06T09:02:18.270Z,31.81
2023-04-06T09:04:48.927Z,32.28
2023-04-06T09:07:17.015Z,31.78
2023-04-06T09:09:49.126Z,30.21
2023-04-06T09:12:30.494Z,28.94
2023-04-06T09:14:59.170Z,28.85
2023-04-06T09:17:34.807Z,27.04
2023-04-06T09:20:03.479Z,26.53
2023-04-06T09:22:40.782Z,24.84
2023-04-06T09:25:09.221Z,24.79
2023-04-06T09:27:38.001Z,23.72
2023-04-06T09:30:17.022Z,22.36
2023-04-06T09:32:49.046Z,23.81
2023-04-06T09:35:16.521Z,25.33
2023-04-06T09:37:44.960Z,27.42
2023-04-06T09:40:12.517Z,28.98
2023-04-06T09:42:42.672Z,28.99
2023-04-06T09:45:10.316Z,30.68
2023-04-06T09:47:38.273Z,31.82
2023-04-06T09:50:06.250Z,31.83
2023-04-06T09:52:39.615Z,32.30
2023-04-06T09:55:09.183Z,32.51
2023-04-06T09:57:51.697Z,32.84
2023-04-06T10:00:23.359Z,32.03
2023-04-06T10:02:59.437Z,32.42
2023-04-06T10:05:41.511Z,31.99
2023-04-06T10:08:11.258Z,32.68
2023-04-06T10:10:38.724Z,32.43
2023-04-06T10:13:06.959Z,32.72
2023-04-06T10:15:35.202Z,33.24
2023-04-06T10:18:03.513Z,33.73
2023-04-06T10:20:52.860Z,35.33
2023-04-06T10:23:31.366Z,36.34
2023-04-06T10:26:00.321Z,36.74
2023-04-06T10:28:31.352Z,38.46
2023-04-06T10:31:00.193Z,38.62
2023-04-06T10:33:27.291Z,37.91
2023-04-06T10:35:55.067Z,38.31
2023-04-06T10:38:23.162Z,38.43
2023-04-06T10:40:50.405Z,41.50
2023-04-06T10:43:22.272Z,40.05
2023-04-06T10:46:01.551Z,39.51
2023-04-06T10:48:42.811Z,39.90
2023-04-06T10:51:12.609Z,40.21
2023-04-06T10:53:39.625Z,40.67
2023-04-06T10:56:14.602Z,41.89
2023-04-06T10:58:48.193Z,42.34
2023-04-06T11:01:19.642Z,42.31
2023-04-06T11:03:48.182Z,42.02
2023-04-06T11:06:23.716Z,42.88
2023-04-06T11:08:52.062Z,42.84
2023-04-06T11:11:21.374Z,43.42
2023-04-06T11:13:50.006Z,43.33
2023-04-06T11:16:27.539Z,44.39
2023-04-06T11:19:01.967Z,44.58
2023-04-06T11:21:38.054Z,45.82
2023-04-06T11:24:20.454Z,45.49
2023-04-06T11:26:53.986Z,46.08
2023-04-06T11:29:26.670Z,46.24
2023-04-06T11:31:55.700Z,46.22
2023-04-06T11:34:34.980Z,46.81
2023-04-06T11:37:07.115Z,46.42
2023-04-06T11:39:51.785Z,46.89
2023-04-06T11:42:26.335Z,46.73
2023-04-06T11:44:56.214Z,46.60
2023-04-06T11:47:31.610Z,47.11
2023-04-06T11:50:10.942Z,47.22
2023-04-06T11:52:39.412Z,47.52
2023-04-06T11:55:17.762Z,48.66
2023-04-06T11:57:45.139Z,48.20
2023-04-06T12:00:13.384Z,49.01
2023-04-06T12:02:41.029Z,49.25
2023-04-06T12:05:12.762Z,50.49
2023-04-06T12:10:07.412Z,53.37
2023-04-06T12:12:34.405Z,52.74
2023-04-06T12:15:01.394Z,53.42
2023-04-06T12:17:28.406Z,53.11
2023-04-06T12:20:01.805Z,52.01
2023-04-06T12:22:32.126Z,51.61
2023-04-06T12:24:59.066Z,51.37
2023-04-06T12:27:26.383Z,51.20
2023-04-06T12:29:53.420Z,51.00
2023-04-06T12:32:20.567Z,52.33
2023-04-06T12:34:47.450Z,53.96
2023-04-06T12:37:14.385Z,52.39
2023-04-06T12:39:41.686Z,52.01
2023-04-06T12:42:09.021Z,52.25
2023-04-06T12:44:36.114Z,51.67
2023-04-06T12:47:03.706Z,51.29
2023-04-06T12:49:31.628Z,51.88
2023-04-06T12:51:59.353Z,51.68
2023-04-06T12:54:27.913Z,52.11
2023-04-06T12:56:54.888Z,51.29
2023-04-06T12:59:22.142Z,52.14
2023-04-06T13:01:51.937Z,51.97
2023-04-06T13:04:19.011Z,52.57
2023-04-06T13:06:46.110Z,52.31
2023-04-06T13:09:13.073Z,51.67
2023-04-06T13:11:42.568Z,52.06
2023-04-06T13:14:09.748Z,51.97
2023-04-06T13:16:37.524Z,52.00
2023-04-06T13:19:04.536Z,51.72
2023-04-06T13:21:31.627Z,51.62
2023-04-06T13:24:02.089Z,51.87
2023-04-06T13:26:29.803Z,51.30
2023-04-06T13:28:57.874Z,51.07
2023-04-06T13:31:24.942Z,51.50
2023-04-06T13:33:51.985Z,52.13
2023-04-06T13:36:18.914Z,51.03
2023-04-06T13:38:46.455Z,51.09
2023-04-06T13:41:22.162Z,50.39
2023-04-06T13:43:49.559Z,49.91
2023-04-06T13:46:16.631Z,49.71
2023-04-06T13:48:44.532Z,49.87
2023-04-06T13:51:12.825Z,47.96
2023-04-06T13:53:41.726Z,48.18
2023-04-06T13:56:09.448Z,48.68
2023-04-06T13:58:37.457Z,47.34
2023-04-06T14:01:11.152Z,48.52
2023-04-06T14:03:40.729Z,48.95
2023-04-06T14:06:20.881Z,48.39
2023-04-06T14:08:54.501Z,47.68
2023-04-06T14:11:21.542Z,46.44
2023-04-06T14:13:48.580Z,46.26
2023-04-06T14:16:16.380Z,45.53
2023-04-06T14:18:43.801Z,45.50
2023-04-06T14:21:10.969Z,47.67
2023-04-06T14:23:38.253Z,45.87
2023-04-06T14:26:06.438Z,45.73
2023-04-06T14:28:34.681Z,45.56
2023-04-06T14:31:05.148Z,46.43
2023-04-06T14:33:32.475Z,44.03
2023-04-06T14:35:59.402Z,42.73
2023-04-06T14:38:26.408Z,42.58
2023-04-06T14:40:53.403Z,42.36
2023-04-06T14:43:22.999Z,42.47
2023-04-06T14:45:50.129Z,41.85
2023-04-06T14:48:18.612Z,41.88
2023-04-06T14:50:58.741Z,41.44
2023-04-06T14:53:26.172Z,41.19
2023-04-06T14:55:53.944Z,40.90
2023-04-06T14:58:21.450Z,40.88
2023-04-06T15:00:48.871Z,40.76
2023-04-06T15:03:16.741Z,41.08
2023-04-06T15:05:43.909Z,40.75
2023-04-06T15:08:10.948Z,41.53
2023-04-06T15:10:37.895Z,41.23
2023-04-06T15:13:04.865Z,41.21
2023-04-06T15:15:31.896Z,42.34
2023-04-06T15:17:58.985Z,42.25
2023-04-06T15:20:26.035Z,42.74
2023-04-06T15:22:52.967Z,42.92
2023-04-06T15:25:19.937Z,42.70
2023-04-06T15:27:46.871Z,43.61
2023-04-06T15:30:14.163Z,43.58
2023-04-06T15:32:41.414Z,43.04
2023-04-06T15:35:13.578Z,42.97
2023-04-06T15:37:40.528Z,42.20
2023-04-06T15:40:08.237Z,41.81
2023-04-06T15:42:35.291Z,41.68
2023-04-06T15:45:02.674Z,42.92
2023-04-06T15:47:29.688Z,43.67
2023-04-06T15:49:56.834Z,43.69
2023-04-06T15:52:23.885Z,43.54
2023-04-06T15:54:50.885Z,45.74
2023-04-06T15:57:17.832Z,47.51
2023-04-06T15:59:44.996Z,48.13
2023-04-06T16:02:13.216Z,47.74
2023-04-06T16:04:40.241Z,48.02
2023-04-06T16:07:07.229Z,46.59
2023-04-06T16:09:34.261Z,47.20
2023-04-06T16:12:01.643Z,46.26
2023-04-06T16:14:28.484Z,46.79
2023-04-06T16:16:55.486Z,45.32
2023-04-06T16:19:22.507Z,45.97
2023-04-06T16:21:49.585Z,47.70
2023-04-06T16:24:16.489Z,45.82
2023-04-06T16:26:44.673Z,45.00
2023-04-06T16:29:11.981Z,45.38
2023-04-06T16:31:39.012Z,43.80
2023-04-06T16:34:06.204Z,46.73
2023-04-06T16:36:34.003Z,46.97
2023-04-06T16:39:02.567Z,45.06
2023-04-06T16:41:32.439Z,42.99
2023-04-06T16:43:59.438Z,43.68
2023-04-06T16:46:33.655Z,43.14
2023-04-06T16:49:01.961Z,43.16
2023-04-06T16:51:29.355Z,43.11
2023-04-06T16:53:56.312Z,43.83
2023-04-06T16:56:23.161Z,43.97
2023-04-06T16:58:50.413Z,44.31
2023-04-06T17:01:26.430Z,43.64
2023-04-06T17:03:54.889Z,43.11
2023-04-06T17:06:22.420Z,45.46
2023-04-06T17:08:51.126Z,44.35
2023-04-06T17:11:21.641Z,45.76
2023-04-06T17:13:52.703Z,44.72
2023-04-06T17:16:21.073Z,44.75
2023-04-06T17:18:48.128Z,47.80
2023-04-06T17:21:17.078Z,48.64
2023-04-06T17:23:44.605Z,48.43
2023-04-06T17:26:11.676Z,49.13
2023-04-06T17:28:38.880Z,49.25
2023-04-06T17:31:11.095Z,49.89
2023-04-06T17:33:39.957Z,50.12
2023-04-06T17:36:09.952Z,49.83
2023-04-06T17:38:37.077Z,50.40
2023-04-06T17:41:07.615Z,51.61
2023-04-06T17:43:34.653Z,51.49
2023-04-06T17:46:01.815Z,51.75
2023-04-06T17:48:30.032Z,52.17
2023-04-06T17:50:57.042Z,52.11
2023-04-06T17:53:24.095Z,51.96
2023-04-06T17:55:51.140Z,52.33
2023-04-06T17:58:18.040Z,52.55
2023-04-06T18:00:44.905Z,53.68
2023-04-06T18:03:12.092Z,53.64
2023-04-06T18:05:39.788Z,54.92
2023-04-06T18:08:06.631Z,53.91
2023-04-06T18:10:39.170Z,54.46
2023-04-06T18:13:07.258Z,54.40
2023-04-06T18:15:38.409Z,54.50
2023-04-06T18:18:07.598Z,54.57
2023-04-06T18:20:39.893Z,54.94
2023-04-06T18:23:06.917Z,54.76
2023-04-06T18:25:38.625Z,54.78
2023-04-06T18:28:06.004Z,55.11
2023-04-06T18:30:32.871Z,54.97
2023-04-06T18:33:00.629Z,55.32
2023-04-06T18:38:23.895Z,55.63
2023-04-06T18:40:51.516Z,55.76
2023-04-06T18:43:18.508Z,56.24
2023-04-06T18:45:45.543Z,55.59
2023-04-06T18:48:13.851Z,55.80
2023-04-06T18:50:41.227Z,55.55
2023-04-06T18:53:08.501Z,56.50
2023-04-06T18:55:36.413Z,55.94
2023-04-06T18:58:03.294Z,55.94
2023-04-06T19:00:30.494Z,55.64
2023-04-06T19:02:57.488Z,55.46
2023-04-06T19:05:24.550Z,54.79
2023-04-06T19:07:52.809Z,54.25
2023-04-06T19:10:20.452Z,53.97
2023-04-06T19:12:48.105Z,54.08
2023-04-06T19:15:15.472Z,54.07
2023-04-06T19:17:42.692Z,54.22
2023-04-06T19:20:10.192Z,54.46
2023-04-06T19:22:37.981Z,54.58
2023-04-06T19:25:06.128Z,54.86
2023-04-06T19:27:33.144Z,55.11
2023-04-06T19:30:00.781Z,55.42
2023-04-06T19:32:27.833Z,55.84
2023-04-06T19:34:54.815Z,55.87
2023-04-06T19:37:22.113Z,55.39
2023-04-06T19:39:49.020Z,55.47
2023-04-06T19:42:16.113Z,56.01
2023-04-06T19:44:43.087Z,55.81
2023-04-06T19:47:11.987Z,55.84
2023-04-06T19:49:40.775Z,55.82
2023-04-06T19:52:10.152Z,55.77
2023-04-06T19:54:38.501Z,56.14
2023-04-06T19:57:05.686Z,55.98
2023-04-06T19:59:34.881Z,56.08
2023-04-06T20:02:02.381Z,55.57
2023-04-06T20:04:29.491Z,55.80
2023-04-06T20:06:56.456Z,55.26
2023-04-06T20:09:24.605Z,56.11
2023-04-06T20:11:54.071Z,55.99
2023-04-06T20:14:22.406Z,55.95
2023-04-06T20:16:50.769Z,55.87
2023-04-06T20:19:19.302Z,55.77
2023-04-06T20:21:46.900Z,55.70
2023-04-06T20:24:14.556Z,55.41
2023-04-06T20:26:41.653Z,55.15
2023-04-06T20:29:08.639Z,56.20
2023-04-06T20:31:35.585Z,55.60
2023-04-06T20:34:02.540Z,54.85
2023-04-06T20:36:31.376Z,55.06
2023-04-06T20:38:58.315Z,54.83
2023-04-06T20:41:25.410Z,54.49
2023-04-06T20:43:52.420Z,54.43
2023-04-06T20:46:19.407Z,55.15
2023-04-06T20:48:46.469Z,55.22
2023-04-06T20:51:23.326Z,55.71
2023-04-06T20:53:50.467Z,55.46
2023-04-06T20:56:21.930Z,55.44
2023-04-06T20:58:49.735Z,55.31
2023-04-06T21:01:20.046Z,55.41
2023-04-06T21:03:46.962Z,55.62
2023-04-06T21:06:14.248Z,55.58
2023-04-06T21:08:41.210Z,55.64
2023-04-06T21:11:08.588Z,55.61
2023-04-06T21:13:36.922Z,55.95
2023-04-06T21:16:03.979Z,55.48
2023-04-06T21:18:32.076Z,55.76
2023-04-06T21:20:59.478Z,55.32
2023-04-06T21:23:26.538Z,56.33
2023-04-06T21:25:57.005Z,56.15
2023-04-06T21:28:25.359Z,56.31
2023-04-06T21:30:53.665Z,56.71
2023-04-06T21:33:20.731Z,56.32
2023-04-06T21:35:47.838Z,55.91
2023-04-06T21:38:14.763Z,56.38
2023-04-06T21:40:41.836Z,56.50
2023-04-06T21:43:09.020Z,56.08
2023-04-06T21:45:35.990Z,56.23
2023-04-06T21:48:03.061Z,55.35
2023-04-06T21:50:30.043Z,55.74
2023-04-06T21:52:57.010Z,55.33
2023-04-06T21:55:23.910Z,55.28
2023-04-06T21:57:51.060Z,55.31
2023-04-06T22:00:18.662Z,54.82
2023-04-06T22:02:46.110Z,54.80
2023-04-06T22:05:14.593Z,54.80
2023-04-06T22:07:42.261Z,54.76
2023-04-06T22:10:09.244Z,54.29
2023-04-06T22:12:37.138Z,53.98
2023-04-06T22:15:04.327Z,54.09
2023-04-06T22:17:34.632Z,54.11
2023-04-06T22:20:01.711Z,53.98
2023-04-06T22:22:28.574Z,53.93
2023-04-06T22:24:57.976Z,53.55
2023-04-06T22:27:26.023Z,53.82
2023-04-06T22:29:53.106Z,53.59
2023-04-06T22:32:20.145Z,53.61
2023-04-06T22:34:47.337Z,53.59
2023-04-06T22:37:14.246Z,54.16
2023-04-06T22:39:43.077Z,54.54
2023-04-06T22:42:09.918Z,53.99
2023-04-06T22:44:37.072Z,53.90
2023-04-06T22:47:04.016Z,53.82
2023-04-06T22:49:31.072Z,53.99
2023-04-06T22:51:57.990Z,54.18
2023-04-06T22:54:25.016Z,54.05
2023-04-06T22:56:51.934Z,53.74
2023-04-06T22:59:18.980Z,53.79
2023-04-06T23:01:45.922Z,54.45
2023-04-06T23:04:13.099Z,54.30
2023-04-06T23:06:40.004Z,54.65
2023-04-06T23:09:07.048Z,54.35
2023-04-06T23:11:34.092Z,54.48
2023-04-06T23:14:01.500Z,54.24
2023-04-06T23:16:28.448Z,54.48
2023-04-06T23:18:56.355Z,54.60
2023-04-06T23:21:23.235Z,54.74
2023-04-06T23:23:50.175Z,54.60
2023-04-06T23:26:17.234Z,54.40
2023-04-06T23:28:44.084Z,54.61
2023-04-06T23:31:11.028Z,54.77
2023-04-06T23:33:37.985Z,54.77
2023-04-06T23:36:05.404Z,54.78
2023-04-06T23:38:33.963Z,55.25
2023-04-06T23:41:01.074Z,54.54
2023-04-06T23:43:28.005Z,55.15
2023-04-06T23:45:54.916Z,54.74
2023-04-06T23:48:21.936Z,55.09
2023-04-06T23:50:48.814Z,54.67
2023-04-06T23:53:15.764Z,54.98
2023-04-06T23:55:42.653Z,55.06
2023-04-06T23:58:09.530Z,55.14
